Time;durP1;ratioP1;P1;durP2;ratioP2;P2;SDS_P1;SDS_P2;PMS_P1;PMS_P2;Temp;Humidity;BMP_temperature;BMP_pressure;BME280_temperature;BME280_humidity;BME280_pressure;Samples;Min_cycle;Max_cycle;Signal;HPM_P1;HPM_P2
2021/03/25 00:09:43;;;;;;;16.00;7.35;;;7.60;99.90;;;;;;6727081;88;20198;-80
2021/03/25 00:19:44;;;;;;;15.32;6.78;;;7.60;99.90;;;;;;6725959;88;20893;-79
2021/03/25 00:29:44;;;;;;;16.52;8.10;;;7.50;99.90;;;;;;6723931;88;20312;-80
2021/03/25 00:39:45;;;;;;;14.90;6.80;;;7.30;99.90;;;;;;6722739;88;20807;-80
2021/03/25 00:49:45;;;;;;;17.10;6.50;;;7.10;99.90;;;;;;6724918;88;20185;-80
2021/03/25 00:59:46;;;;;;;13.50;6.53;;;7.10;99.90;;;;;;6720088;88;20231;-80
2021/03/25 01:09:46;;;;;;;18.67;7.07;;;7.00;99.90;;;;;;6721859;88;20187;-80
2021/03/25 01:19:47;;;;;;;16.52;6.75;;;6.80;99.90;;;;;;6727368;88;20232;-80
2021/03/25 01:29:47;;;;;;;15.77;6.22;;;6.70;99.90;;;;;;6725436;88;20232;-81
2021/03/25 01:39:50;;;;;;;14.07;5.80;;;6.60;99.90;;;;;;6728023;88;20173;-79
2021/03/25 01:49:51;;;;;;;14.00;6.80;;;6.40;99.90;;;;;;6722997;88;20227;-80
2021/03/25 02:00:20;;;;;;;14.07;6.07;;;6.30;99.90;;;;;;6721464;88;20199;-79
2021/03/25 02:10:35;;;;;;;12.80;6.05;;;6.50;99.90;;;;;;6724246;88;20177;-79
2021/03/25 02:20:43;;;;;;;13.93;6.12;;;6.50;99.90;;;;;;6721727;88;20185;-79
2021/03/25 02:30:49;;;;;;;11.82;5.72;;;6.30;99.90;;;;;;6722392;88;20197;-80
2021/03/25 02:41:00;;;;;;;14.73;6.87;;;6.10;99.90;;;;;;6728320;88;20191;-80
2021/03/25 02:51:14;;;;;;;16.08;6.68;;;6.20;99.90;;;;;;6721984;88;20174;-79
2021/03/25 03:01:17;;;;;;;15.10;6.43;;;6.00;99.90;;;;;;6722020;88;20209;-79
2021/03/25 03:11:26;;;;;;;19.62;8.45;;;5.90;99.90;;;;;;6721259;88;20211;-81
2021/03/25 03:21:41;;;;;;;14.52;7.15;;;5.70;99.90;;;;;;6728736;88;20208;-79
2021/03/25 03:31:48;;;;;;;16.77;6.37;;;5.80;99.90;;;;;;6721078;88;20948;-80
2021/03/25 03:52:00;;;;;;;18.42;7.80;;;5.60;99.90;;;;;;6739584;88;20214;-76
2021/03/25 04:02:23;;;;;;;16.62;7.35;;;5.70;99.90;;;;;;6738756;88;20211;-76
2021/03/25 04:12:30;;;;;;;13.45;6.70;;;5.60;99.90;;;;;;6737875;88;20796;-77
2021/03/25 04:22:37;;;;;;;19.00;7.20;;;5.40;99.90;;;;;;6741331;88;20198;-77
2021/03/25 04:32:37;;;;;;;18.30;7.95;;;5.50;99.90;;;;;;6737502;88;20384;-77
2021/03/25 04:42:43;;;;;;;18.98;8.00;;;5.50;99.90;;;;;;6735964;88;20224;-77
2021/03/25 04:52:43;;;;;;;20.15;7.80;;;5.50;99.90;;;;;;6739142;88;20264;-77
2021/03/25 05:02:44;;;;;;;20.27;8.00;;;5.40;99.90;;;;;;6734501;88;20630;-77
2021/03/25 05:12:45;;;;;;;17.17;7.50;;;5.60;99.90;;;;;;6732906;88;20185;-77
2021/03/25 05:23:09;;;;;;;16.83;7.15;;;5.70;99.90;;;;;;6736842;88;20893;-77
2021/03/25 05:33:13;;;;;;;15.68;6.78;;;6.00;99.90;;;;;;6735283;88;20643;-77
2021/03/25 05:43:42;;;;;;;16.20;7.37;;;6.20;99.90;;;;;;6733918;88;20197;-76
2021/03/25 05:54:14;;;;;;;22.67;8.63;;;6.20;99.90;;;;;;6734757;88;20652;-77
2021/03/25 06:04:18;;;;;;;17.92;8.20;;;6.80;99.90;;;;;;6734610;88;20200;-76
2021/03/25 06:14:56;;;;;;;18.42;8.52;;;6.70;99.90;;;;;;6734127;88;20288;-77
2021/03/25 06:25:22;;;;;;;21.30;8.75;;;6.60;99.90;;;;;;6733761;88;20187;-77
2021/03/25 06:35:31;;;;;;;21.37;9.00;;;6.70;99.90;;;;;;6731972;88;20656;-77
2021/03/25 06:45:37;;;;;;;20.23;9.05;;;7.00;99.90;;;;;;6736003;88;20220;-77
2021/03/25 06:55:38;;;;;;;35.43;15.10;;;7.10;99.90;;;;;;6735428;88;20206;-77
2021/03/25 07:05:39;;;;;;;46.40;21.23;;;7.40;99.90;;;;;;6742782;88;20196;-77
2021/03/25 07:15:41;;;;;;;46.88;20.37;;;7.80;99.90;;;;;;6738165;88;20536;-77
2021/03/25 07:25:47;;;;;;;50.50;22.85;;;8.20;99.90;;;;;;6731934;88;20210;-78
2021/03/25 07:36:04;;;;;;;54.23;24.37;;;8.30;99.90;;;;;;6739655;88;20177;-77
2021/03/25 07:46:16;;;;;;;53.65;23.05;;;8.50;99.90;;;;;;6736120;88;20381;-77
2021/03/25 07:56:18;;;;;;;50.78;23.30;;;8.50;99.90;;;;;;6731740;88;20920;-78
2021/03/25 08:06:20;;;;;;;51.47;24.65;;;8.90;99.90;;;;;;6740949;88;20219;-77
2021/03/25 08:16:22;;;;;;;57.50;24.63;;;9.20;99.90;;;;;;6748789;88;20195;-77
2021/03/25 08:27:00;;;;;;;55.15;25.40;;;9.70;99.90;;;;;;6746346;88;20249;-77
2021/03/25 08:37:11;;;;;;;53.03;23.83;;;10.90;99.90;;;;;;6744544;88;20189;-77
2021/03/25 08:47:24;;;;;;;54.10;25.05;;;11.60;99.90;;;;;;6744607;88;20213;-77
2021/03/25 08:57:30;;;;;;;54.47;24.35;;;12.40;99.90;;;;;;6744779;88;20690;-78
2021/03/25 09:07:33;;;;;;;51.50;25.92;;;12.60;99.90;;;;;;6743229;88;20181;-78
2021/03/25 09:17:39;;;;;;;51.03;25.88;;;12.80;99.90;;;;;;6740902;88;20663;-78
2021/03/25 09:28:03;;;;;;;48.87;25.88;;;14.10;99.90;;;;;;6742370;88;20201;-77
2021/03/25 09:38:09;;;;;;;57.95;29.17;;;13.80;99.90;;;;;;6749845;88;20294;-78
2021/03/25 09:48:30;;;;;;;57.03;28.23;;;13.40;99.90;;;;;;6746545;77;20193;-79
2021/03/25 09:58:40;;;;;;;50.10;26.85;;;14.20;99.90;;;;;;6690462;88;20216;-78
2021/03/25 10:08:41;;;;;;;51.90;25.85;;;13.80;99.90;;;;;;6702423;88;20236;-81
2021/03/25 10:18:47;;;;;;;52.33;26.90;;;14.10;99.90;;;;;;6702315;88;20194;-80
2021/03/25 10:29:11;;;;;;;53.50;26.37;;;14.90;99.90;;;;;;6713067;88;20217;-79
2021/03/25 10:39:34;;;;;;;48.15;24.58;;;15.20;99.90;;;;;;6695909;89;20175;-82
2021/03/25 10:49:59;;;;;;;50.05;25.67;;;16.10;99.90;;;;;;6700869;89;20701;-81
2021/03/25 11:00:20;;;;;;;46.72;25.48;;;17.70;96.90;;;;;;6688269;89;20212;-80
2021/03/25 11:10:33;;;;;;;48.45;25.62;;;18.60;93.90;;;;;;6704641;88;20814;-81
2021/03/25 11:20:34;;;;;;;48.20;26.02;;;19.60;90.30;;;;;;6703546;88;20274;-80
2021/03/25 11:30:43;;;;;;;49.13;25.12;;;19.60;88.00;;;;;;6695277;88;20879;-80
2021/03/25 11:40:47;;;;;;;44.58;25.35;;;18.60;89.50;;;;;;6696635;88;20209;-80
2021/03/25 11:50:49;;;;;;;46.33;25.77;;;18.60;90.60;;;;;;6702955;88;20195;-79
2021/03/25 12:00:55;;;;;;;48.42;25.25;;;19.00;88.30;;;;;;6682172;88;22548;-81
2021/03/25 12:11:15;;;;;;;41.83;23.33;;;19.00;89.20;;;;;;6710766;88;20183;-79
2021/03/25 12:21:15;;;;;;;41.67;22.37;;;19.80;87.80;;;;;;6696721;88;20206;-80
2021/03/25 12:31:17;;;;;;;40.88;23.25;;;19.30;87.20;;;;;;6701257;88;20525;-79
2021/03/25 12:41:33;;;;;;;40.42;21.40;;;19.60;87.70;;;;;;6704305;88;20592;-80
2021/03/25 12:51:34;;;;;;;34.55;19.98;;;20.80;83.30;;;;;;6683873;89;20334;-81
2021/03/25 13:01:35;;;;;;;36.83;20.12;;;18.80;86.20;;;;;;6698886;88;20779;-80
2021/03/25 13:11:36;;;;;;;33.80;18.10;;;18.80;86.40;;;;;;6703181;88;20233;-80
2021/03/25 13:21:36;;;;;;;26.90;16.33;;;18.30;87.40;;;;;;6690427;88;20612;-81
2021/03/25 13:31:37;;;;;;;29.30;15.75;;;19.30;85.40;;;;;;6709587;88;20273;-81
2021/03/25 13:41:37;;;;;;;22.87;12.05;;;20.80;78.10;;;;;;6705141;88;20195;-81
2021/03/25 13:51:38;;;;;;;30.25;14.65;;;19.60;80.20;;;;;;6706143;88;20207;-79
2021/03/25 14:01:39;;;;;;;22.20;12.50;;;18.90;83.30;;;;;;6701636;88;20295;-81
2021/03/25 14:11:40;;;;;;;19.75;11.90;;;18.30;84.70;;;;;;6692772;88;20263;-80
2021/03/25 14:21:41;;;;;;;20.08;11.60;;;18.20;84.30;;;;;;6713787;88;20194;-81
2021/03/25 14:31:41;;;;;;;20.88;11.82;;;17.80;85.80;;;;;;6691168;89;20781;-80
2021/03/25 14:41:42;;;;;;;21.15;11.27;;;17.80;84.10;;;;;;6689039;88;20183;-81
2021/03/25 14:51:43;;;;;;;19.83;11.77;;;17.10;89.20;;;;;;6701619;88;20286;-81
2021/03/25 15:01:44;;;;;;;30.30;12.82;;;16.80;90.50;;;;;;6712546;88;20524;-80
2021/03/25 15:11:45;;;;;;;24.77;11.98;;;15.70;93.30;;;;;;6707035;88;20187;-81
2021/03/25 15:21:46;;;;;;;19.92;11.32;;;15.40;94.90;;;;;;6722894;88;20164;-79
2021/03/25 15:31:47;;;;;;;20.40;10.52;;;15.40;95.40;;;;;;6705159;88;20284;-81
2021/03/25 15:41:47;;;;;;;19.37;11.43;;;14.90;96.90;;;;;;6701964;77;20363;-76
2021/03/25 15:51:48;;;;;;;20.02;10.18;;;14.90;97.60;;;;;;6690844;88;20794;-76
2021/03/25 16:01:49;;;;;;;16.15;9.35;;;14.60;98.80;;;;;;6697711;88;20471;-75
2021/03/25 16:11:49;;;;;;;13.75;8.25;;;14.30;99.30;;;;;;6694361;88;20197;-76
2021/03/25 16:21:50;;;;;;;17.65;8.75;;;14.20;99.70;;;;;;6697117;88;20795;-76
2021/03/25 16:31:50;;;;;;;13.80;8.30;;;13.90;99.90;;;;;;6695099;88;20186;-76
2021/03/25 16:41:51;;;;;;;14.32;8.25;;;13.80;99.90;;;;;;6693229;88;20301;-76
2021/03/25 16:51:52;;;;;;;16.42;8.43;;;13.80;99.90;;;;;;6690700;88;20327;-76
2021/03/25 17:01:52;;;;;;;14.60;8.40;;;13.60;99.90;;;;;;6692798;88;20257;-76
2021/03/25 17:11:53;;;;;;;15.00;10.02;;;13.50;99.90;;;;;;6689455;88;20324;-76
2021/03/25 17:21:53;;;;;;;17.55;10.00;;;13.10;99.90;;;;;;6693626;88;20209;-76
2021/03/25 17:31:54;;;;;;;15.88;9.95;;;12.60;99.90;;;;;;6701704;88;20255;-76
2021/03/25 17:41:54;;;;;;;16.55;10.27;;;12.30;99.90;;;;;;6713989;88;20210;-78
2021/03/25 17:51:55;;;;;;;18.45;12.20;;;12.20;99.90;;;;;;6692505;88;20700;-77
2021/03/25 18:01:57;;;;;;;24.05;14.18;;;12.20;99.90;;;;;;6692735;88;20238;-76
2021/03/25 18:11:57;;;;;;;28.50;15.18;;;12.10;99.90;;;;;;6700873;88;20298;-76
2021/03/25 18:21:58;;;;;;;24.27;14.20;;;11.90;99.90;;;;;;6692360;88;20227;-76
2021/03/25 18:31:59;;;;;;;15.32;9.82;;;11.90;99.90;;;;;;6702376;88;20618;-78
2021/03/25 18:41:59;;;;;;;18.90;9.98;;;11.70;99.90;;;;;;6698048;88;20177;-75
2021/03/25 18:52:03;;;;;;;18.98;9.55;;;11.80;99.90;;;;;;6695527;88;20761;-76
2021/03/25 19:02:04;;;;;;;19.12;10.32;;;11.80;99.90;;;;;;6699992;88;20633;-76
2021/03/25 19:12:05;;;;;;;19.48;11.80;;;11.80;99.90;;;;;;6696683;88;20198;-77
2021/03/25 19:22:06;;;;;;;25.40;16.42;;;11.80;99.90;;;;;;6695271;88;20240;-76
2021/03/25 19:32:07;;;;;;;26.02;14.77;;;12.10;99.90;;;;;;6700346;88;20727;-78
2021/03/25 19:42:08;;;;;;;25.83;15.80;;;11.70;99.90;;;;;;6702449;88;20204;-76
2021/03/25 19:52:09;;;;;;;24.02;15.15;;;11.40;99.90;;;;;;6697655;88;20302;-77
2021/03/25 20:02:14;;;;;;;25.40;15.15;;;11.40;99.90;;;;;;6694208;88;20728;-77
2021/03/25 20:12:14;;;;;;;29.63;15.93;;;11.50;99.90;;;;;;6697440;88;20207;-76
2021/03/25 20:22:15;;;;;;;26.67;15.70;;;11.40;99.90;;;;;;6697301;88;20646;-75
2021/03/25 20:32:15;;;;;;;26.48;15.75;;;11.20;99.90;;;;;;6697021;88;20182;-77
2021/03/25 20:42:16;;;;;;;27.35;16.95;;;11.20;99.90;;;;;;6690947;88;20209;-76
2021/03/25 20:52:17;;;;;;;31.85;17.12;;;11.20;99.90;;;;;;6691465;88;20222;-76
2021/03/25 21:02:17;;;;;;;29.40;17.17;;;11.10;99.90;;;;;;6695770;88;20191;-77
2021/03/25 21:12:18;;;;;;;33.17;18.50;;;11.10;99.90;;;;;;6698778;88;20212;-76
2021/03/25 21:22:19;;;;;;;32.17;19.57;;;10.90;99.90;;;;;;6699252;88;20202;-76
2021/03/25 21:32:19;;;;;;;35.25;19.75;;;10.60;99.90;;;;;;6698410;88;21145;-75
2021/03/25 21:52:23;;;;;;;32.30;18.52;;;10.40;99.90;;;;;;6717246;88;20253;-80
2021/03/25 22:02:24;;;;;;;26.17;15.77;;;10.40;99.90;;;;;;6726637;88;20293;-79
2021/03/25 22:12:24;;;;;;;25.27;12.02;;;10.20;99.90;;;;;;6729589;88;20648;-81
2021/03/25 22:22:26;;;;;;;19.12;9.35;;;10.30;99.90;;;;;;6721178;88;20202;-80
2021/03/25 22:32:26;;;;;;;16.15;8.43;;;10.30;99.90;;;;;;6682283;89;20225;-80
2021/03/25 22:42:27;;;;;;;18.77;8.98;;;10.40;99.90;;;;;;6694886;88;20181;-79
2021/03/25 22:52:27;;;;;;;20.45;10.55;;;10.40;99.90;;;;;;6727322;88;20226;-80
2021/03/25 23:02:35;;;;;;;26.35;15.20;;;10.20;99.90;;;;;;6723481;88;20731;-79
2021/03/25 23:12:36;;;;;;;29.87;16.20;;;9.80;99.90;;;;;;6730913;88;20506;-81
2021/03/25 23:22:39;;;;;;;29.33;15.93;;;9.40;99.90;;;;;;6733400;88;20185;-79
2021/03/25 23:32:40;;;;;;;26.83;14.93;;;9.20;99.90;;;;;;6734603;88;20198;-79
2021/03/25 23:42:41;;;;;;;27.37;14.82;;;9.20;99.90;;;;;;6737393;88;20194;-78
2021/03/25 23:52:42;;;;;;;26.02;15.07;;;9.00;99.90;;;;;;6731797;88;20204;-79
